sensor_id;sensor_type;location;lat;lon;timestamp;temperature;humidity
20915;DHT22;10617;52.032;5.298;2023-08-20T00:00:18;20.40;99.90
20915;DHT22;10617;52.032;5.298;2023-08-20T00:04:20;20.40;99.90
20915;DHT22;10617;52.032;5.298;2023-08-20T00:08:24;20.40;99.90
20915;DHT22;10617;52.032;5.298;2023-08-20T00:12:26;20.30;99.90
20915;DHT22;10617;52.032;5.298;2023-08-20T00:16:28;20.30;99.90
20915;DHT22;10617;52.032;5.298;2023-08-20T00:20:29;20.20;99.90
20915;DHT22;10617;52.032;5.298;2023-08-20T00:24:31;20.10;99.90
20915;DHT22;10617;52.032;5.298;2023-08-20T00:28:33;20.10;99.90
20915;DHT22;10617;52.032;5.298;2023-08-20T00:32:36;20.00;99.90
20915;DHT22;10617;52.032;5.298;2023-08-20T00:36:38;19.90;99.90
20915;DHT22;10617;52.032;5.298;2023-08-20T00:40:39;19.90;99.90
20915;DHT22;10617;52.032;5.298;2023-08-20T00:44:41;19.90;99.90
20915;DHT22;10617;52.032;5.298;2023-08-20T00:48:45;19.80;99.90
20915;DHT22;10617;52.032;5.298;2023-08-20T00:52:47;19.80;99.90
20915;DHT22;10617;52.032;5.298;2023-08-20T00:56:49;19.80;99.90
20915;DHT22;10617;52.032;5.298;2023-08-20T01:00:51;19.80;99.90
20915;DHT22;10617;52.032;5.298;2023-08-20T01:04:53;19.80;99.90
20915;DHT22;10617;52.032;5.298;2023-08-20T01:08:57;19.70;99.90
20915;DHT22;10617;52.032;5.298;2023-08-20T01:13:00;19.70;99.90
20915;DHT22;10617;52.032;5.298;2023-08-20T01:17:02;19.70;99.90
20915;DHT22;10617;52.032;5.298;2023-08-20T01:21:05;19.60;99.90
20915;DHT22;10617;52.032;5.298;2023-08-20T01:29:13;19.60;99.90
20915;DHT22;10617;52.032;5.298;2023-08-20T01:33:15;19.60;99.90
20915;DHT22;10617;52.032;5.298;2023-08-20T01:37:18;19.60;99.90
20915;DHT22;10617;52.032;5.298;2023-08-20T01:41:19;19.60;99.90
20915;DHT22;10617;52.032;5.298;2023-08-20T01:45:21;19.50;99.90
20915;DHT22;10617;52.032;5.298;2023-08-20T01:49:23;19.50;99.90
20915;DHT22;10617;52.032;5.298;2023-08-20T01:53:25;19.50;99.90
20915;DHT22;10617;52.032;5.298;2023-08-20T01:57:26;19.40;99.90
20915;DHT22;10617;52.032;5.298;2023-08-20T02:01:28;19.40;99.90
20915;DHT22;10617;52.032;5.298;2023-08-20T02:05:30;19.30;99.90
20915;DHT22;10617;52.032;5.298;2023-08-20T02:09:32;19.30;99.90
20915;DHT22;10617;52.032;5.298;2023-08-20T02:13:33;19.30;99.90
20915;DHT22;10617;52.032;5.298;2023-08-20T02:17:35;19.20;99.90
20915;DHT22;10617;52.032;5.298;2023-08-20T02:21:38;19.20;99.90
20915;DHT22;10617;52.032;5.298;2023-08-20T02:25:39;19.20;99.90
20915;DHT22;10617;52.032;5.298;2023-08-20T02:29:41;19.10;99.90
20915;DHT22;10617;52.032;5.298;2023-08-20T02:33:42;19.10;99.90
20915;DHT22;10617;52.032;5.298;2023-08-20T02:37:44;19.00;99.90
20915;DHT22;10617;52.032;5.298;2023-08-20T02:41:46;19.00;99.90
20915;DHT22;10617;52.032;5.298;2023-08-20T02:45:47;18.90;99.90
20915;DHT22;10617;52.032;5.298;2023-08-20T02:49:49;18.90;99.90
20915;DHT22;10617;52.032;5.298;2023-08-20T02:53:51;18.70;99.90
20915;DHT22;10617;52.032;5.298;2023-08-20T02:57:53;18.70;99.90
20915;DHT22;10617;52.032;5.298;2023-08-20T03:01:54;18.60;99.90
20915;DHT22;10617;52.032;5.298;2023-08-20T03:05:56;18.60;99.90
20915;DHT22;10617;52.032;5.298;2023-08-20T03:09:58;18.50;99.90
20915;DHT22;10617;52.032;5.298;2023-08-20T03:13:59;18.50;99.90
20915;DHT22;10617;52.032;5.298;2023-08-20T03:18:01;18.40;99.90
20915;DHT22;10617;52.032;5.298;2023-08-20T03:22:03;18.40;99.90
20915;DHT22;10617;52.032;5.298;2023-08-20T03:26:04;18.40;99.90
20915;DHT22;10617;52.032;5.298;2023-08-20T03:30:06;18.40;99.90
20915;DHT22;10617;52.032;5.298;2023-08-20T03:34:08;18.30;99.90
20915;DHT22;10617;52.032;5.298;2023-08-20T03:38:11;18.30;99.90
20915;DHT22;10617;52.032;5.298;2023-08-20T03:42:12;18.30;99.90
20915;DHT22;10617;52.032;5.298;2023-08-20T03:46:14;18.20;99.90
20915;DHT22;10617;52.032;5.298;2023-08-20T03:50:16;18.20;99.90
20915;DHT22;10617;52.032;5.298;2023-08-20T03:54:17;18.10;99.90
20915;DHT22;10617;52.032;5.298;2023-08-20T03:58:19;18.10;99.90
20915;DHT22;10617;52.032;5.298;2023-08-20T04:02:21;18.10;99.90
20915;DHT22;10617;52.032;5.298;2023-08-20T04:06:22;18.10;99.90
20915;DHT22;10617;52.032;5.298;2023-08-20T04:10:24;18.10;99.90
20915;DHT22;10617;52.032;5.298;2023-08-20T04:14:26;18.10;99.90
20915;DHT22;10617;52.032;5.298;2023-08-20T04:18:27;18.00;99.90
20915;DHT22;10617;52.032;5.298;2023-08-20T04:22:29;18.00;99.90
20915;DHT22;10617;52.032;5.298;2023-08-20T04:26:32;18.00;99.90
20915;DHT22;10617;52.032;5.298;2023-08-20T04:30:35;18.00;99.90
20915;DHT22;10617;52.032;5.298;2023-08-20T04:34:37;18.00;99.90
20915;DHT22;10617;52.032;5.298;2023-08-20T04:38:39;17.90;99.90
20915;DHT22;10617;52.032;5.298;2023-08-20T04:42:40;17.90;99.90
20915;DHT22;10617;52.032;5.298;2023-08-20T04:46:42;17.90;99.90
20915;DHT22;10617;52.032;5.298;2023-08-20T04:50:44;17.90;99.90
20915;DHT22;10617;52.032;5.298;2023-08-20T04:54:46;17.90;99.90
20915;DHT22;10617;52.032;5.298;2023-08-20T04:58:48;17.90;99.90
20915;DHT22;10617;52.032;5.298;2023-08-20T05:02:50;17.90;99.90
20915;DHT22;10617;52.032;5.298;2023-08-20T05:06:51;17.90;99.90
20915;DHT22;10617;52.032;5.298;2023-08-20T05:10:53;17.90;99.90
20915;DHT22;10617;52.032;5.298;2023-08-20T05:14:55;17.90;99.90
20915;DHT22;10617;52.032;5.298;2023-08-20T05:18:57;17.90;99.90
20915;DHT22;10617;52.032;5.298;2023-08-20T05:22:58;17.80;99.90
20915;DHT22;10617;52.032;5.298;2023-08-20T05:27:18;17.80;99.90
20915;DHT22;10617;52.032;5.298;2023-08-20T05:31:20;17.80;99.90
20915;DHT22;10617;52.032;5.298;2023-08-20T05:35:22;17.80;99.90
20915;DHT22;10617;52.032;5.298;2023-08-20T05:39:24;17.80;99.90
20915;DHT22;10617;52.032;5.298;2023-08-20T05:43:27;17.80;99.90
20915;DHT22;10617;52.032;5.298;2023-08-20T05:47:28;17.80;99.90
20915;DHT22;10617;52.032;5.298;2023-08-20T05:51:32;17.80;99.90
20915;DHT22;10617;52.032;5.298;2023-08-20T05:55:34;17.90;99.90
20915;DHT22;10617;52.032;5.298;2023-08-20T05:59:35;18.10;99.90
20915;DHT22;10617;52.032;5.298;2023-08-20T06:03:37;18.20;99.90
20915;DHT22;10617;52.032;5.298;2023-08-20T06:07:39;18.30;99.90
20915;DHT22;10617;52.032;5.298;2023-08-20T06:11:42;18.40;99.90
20915;DHT22;10617;52.032;5.298;2023-08-20T06:15:43;18.50;99.90
20915;DHT22;10617;52.032;5.298;2023-08-20T06:19:45;18.50;99.90
20915;DHT22;10617;52.032;5.298;2023-08-20T06:23:46;18.60;99.90
20915;DHT22;10617;52.032;5.298;2023-08-20T06:27:48;18.80;99.90
20915;DHT22;10617;52.032;5.298;2023-08-20T06:31:50;18.90;99.90
20915;DHT22;10617;52.032;5.298;2023-08-20T06:35:52;19.00;99.90
20915;DHT22;10617;52.032;5.298;2023-08-20T06:39:54;19.10;99.90
20915;DHT22;10617;52.032;5.298;2023-08-20T06:43:55;19.20;99.90
20915;DHT22;10617;52.032;5.298;2023-08-20T06:47:57;19.30;99.90
20915;DHT22;10617;52.032;5.298;2023-08-20T06:51:59;19.40;99.90
20915;DHT22;10617;52.032;5.298;2023-08-20T06:56:01;19.50;99.90
20915;DHT22;10617;52.032;5.298;2023-08-20T07:00:02;19.60;99.90
20915;DHT22;10617;52.032;5.298;2023-08-20T07:04:06;19.70;99.90
20915;DHT22;10617;52.032;5.298;2023-08-20T07:08:08;19.90;99.90
20915;DHT22;10617;52.032;5.298;2023-08-20T07:12:09;20.00;99.90
20915;DHT22;10617;52.032;5.298;2023-08-20T07:16:11;20.00;99.90
20915;DHT22;10617;52.032;5.298;2023-08-20T07:20:13;20.10;99.90
20915;DHT22;10617;52.032;5.298;2023-08-20T07:24:14;20.20;99.90
20915;DHT22;10617;52.032;5.298;2023-08-20T07:28:16;20.30;99.90
20915;DHT22;10617;52.032;5.298;2023-08-20T07:32:27;20.30;99.90
20915;DHT22;10617;52.032;5.298;2023-08-20T07:36:29;20.30;99.90
20915;DHT22;10617;52.032;5.298;2023-08-20T07:40:31;20.40;99.90
20915;DHT22;10617;52.032;5.298;2023-08-20T07:54:42;20.60;99.90
20915;DHT22;10617;52.032;5.298;2023-08-20T07:58:46;20.60;99.90
20915;DHT22;10617;52.032;5.298;2023-08-20T08:02:47;20.60;99.90
20915;DHT22;10617;52.032;5.298;2023-08-20T08:06:49;20.70;99.90
20915;DHT22;10617;52.032;5.298;2023-08-20T08:10:51;20.80;99.90
20915;DHT22;10617;52.032;5.298;2023-08-20T08:14:53;20.90;99.90
20915;DHT22;10617;52.032;5.298;2023-08-20T08:18:54;20.90;99.90
20915;DHT22;10617;52.032;5.298;2023-08-20T08:22:56;21.00;99.90
20915;DHT22;10617;52.032;5.298;2023-08-20T08:26:58;21.00;99.90
20915;DHT22;10617;52.032;5.298;2023-08-20T08:30:59;21.10;99.90
20915;DHT22;10617;52.032;5.298;2023-08-20T08:35:01;21.10;99.90
20915;DHT22;10617;52.032;5.298;2023-08-20T08:39:03;21.20;99.90
20915;DHT22;10617;52.032;5.298;2023-08-20T08:43:04;21.30;99.90
20915;DHT22;10617;52.032;5.298;2023-08-20T08:47:07;21.30;99.90
20915;DHT22;10617;52.032;5.298;2023-08-20T08:51:08;21.40;99.90
20915;DHT22;10617;52.032;5.298;2023-08-20T08:55:10;21.40;99.90
20915;DHT22;10617;52.032;5.298;2023-08-20T08:59:12;21.50;99.90
20915;DHT22;10617;52.032;5.298;2023-08-20T09:03:14;21.50;99.90
20915;DHT22;10617;52.032;5.298;2023-08-20T09:07:16;21.60;99.90
20915;DHT22;10617;52.032;5.298;2023-08-20T09:11:17;21.70;99.90
20915;DHT22;10617;52.032;5.298;2023-08-20T09:15:19;21.80;99.90
20915;DHT22;10617;52.032;5.298;2023-08-20T09:19:21;21.80;99.90
20915;DHT22;10617;52.032;5.298;2023-08-20T09:23:22;21.90;99.90
20915;DHT22;10617;52.032;5.298;2023-08-20T09:27:24;22.00;99.90
20915;DHT22;10617;52.032;5.298;2023-08-20T09:31:38;22.10;99.90
20915;DHT22;10617;52.032;5.298;2023-08-20T09:35:49;22.20;99.90
20915;DHT22;10617;52.032;5.298;2023-08-20T09:39:51;22.30;99.90
20915;DHT22;10617;52.032;5.298;2023-08-20T09:43:55;22.30;99.90
20915;DHT22;10617;52.032;5.298;2023-08-20T09:47:57;22.40;99.90
20915;DHT22;10617;52.032;5.298;2023-08-20T09:51:59;22.40;99.90
20915;DHT22;10617;52.032;5.298;2023-08-20T09:56:09;22.50;99.90
20915;DHT22;10617;52.032;5.298;2023-08-20T10:00:11;22.60;99.90
20915;DHT22;10617;52.032;5.298;2023-08-20T10:04:14;22.60;99.90
20915;DHT22;10617;52.032;5.298;2023-08-20T10:08:17;22.70;99.90
20915;DHT22;10617;52.032;5.298;2023-08-20T10:12:18;22.70;99.90
20915;DHT22;10617;52.032;5.298;2023-08-20T10:16:21;22.80;99.90
20915;DHT22;10617;52.032;5.298;2023-08-20T10:20:25;22.80;99.90
20915;DHT22;10617;52.032;5.298;2023-08-20T10:28:51;23.10;99.90
20915;DHT22;10617;52.032;5.298;2023-08-20T10:33:13;23.20;99.90
20915;DHT22;10617;52.032;5.298;2023-08-20T10:37:21;23.30;99.90
20915;DHT22;10617;52.032;5.298;2023-08-20T10:41:27;23.30;99.90
20915;DHT22;10617;52.032;5.298;2023-08-20T10:45:29;23.40;99.90
20915;DHT22;10617;52.032;5.298;2023-08-20T10:49:31;23.40;99.90
20915;DHT22;10617;52.032;5.298;2023-08-20T10:53:33;23.40;99.90
20915;DHT22;10617;52.032;5.298;2023-08-20T10:57:35;23.50;99.90
20915;DHT22;10617;52.032;5.298;2023-08-20T11:01:37;23.50;99.90
20915;DHT22;10617;52.032;5.298;2023-08-20T11:05:39;23.60;99.90
20915;DHT22;10617;52.032;5.298;2023-08-20T11:14:44;23.70;99.90
20915;DHT22;10617;52.032;5.298;2023-08-20T11:18:46;23.80;99.90
20915;DHT22;10617;52.032;5.298;2023-08-20T11:22:48;23.90;99.90
20915;DHT22;10617;52.032;5.298;2023-08-20T11:26:50;23.90;99.90
20915;DHT22;10617;52.032;5.298;2023-08-20T11:30:52;24.00;99.90
20915;DHT22;10617;52.032;5.298;2023-08-20T11:34:54;24.10;99.90
20915;DHT22;10617;52.032;5.298;2023-08-20T11:38:56;24.10;99.90
20915;DHT22;10617;52.032;5.298;2023-08-20T11:42:58;24.20;99.90
20915;DHT22;10617;52.032;5.298;2023-08-20T11:46:59;24.20;99.90
20915;DHT22;10617;52.032;5.298;2023-08-20T11:51:01;24.30;99.90
20915;DHT22;10617;52.032;5.298;2023-08-20T11:55:03;24.20;99.90
20915;DHT22;10617;52.032;5.298;2023-08-20T11:59:05;24.30;99.90
20915;DHT22;10617;52.032;5.298;2023-08-20T12:03:11;24.30;99.90
20915;DHT22;10617;52.032;5.298;2023-08-20T12:07:14;24.30;99.90
20915;DHT22;10617;52.032;5.298;2023-08-20T12:11:16;24.30;99.90
20915;DHT22;10617;52.032;5.298;2023-08-20T12:15:18;24.40;99.90
20915;DHT22;10617;52.032;5.298;2023-08-20T12:19:20;24.50;99.90
20915;DHT22;10617;52.032;5.298;2023-08-20T12:23:22;24.60;99.90
20915;DHT22;10617;52.032;5.298;2023-08-20T12:27:24;24.60;99.90
20915;DHT22;10617;52.032;5.298;2023-08-20T12:31:25;24.60;99.90
20915;DHT22;10617;52.032;5.298;2023-08-20T12:35:27;24.70;99.90
20915;DHT22;10617;52.032;5.298;2023-08-20T12:39:29;24.80;99.90
20915;DHT22;10617;52.032;5.298;2023-08-20T12:43:30;24.80;99.90
20915;DHT22;10617;52.032;5.298;2023-08-20T12:47:32;24.80;99.90
20915;DHT22;10617;52.032;5.298;2023-08-20T12:51:35;24.80;99.90
20915;DHT22;10617;52.032;5.298;2023-08-20T12:55:36;24.90;99.90
20915;DHT22;10617;52.032;5.298;2023-08-20T12:59:38;25.00;99.90
20915;DHT22;10617;52.032;5.298;2023-08-20T13:03:39;25.10;99.90
20915;DHT22;10617;52.032;5.298;2023-08-20T13:07:41;25.10;99.90
20915;DHT22;10617;52.032;5.298;2023-08-20T13:11:43;25.00;99.90
20915;DHT22;10617;52.032;5.298;2023-08-20T13:15:46;25.00;99.90
20915;DHT22;10617;52.032;5.298;2023-08-20T13:19:47;24.90;99.90
20915;DHT22;10617;52.032;5.298;2023-08-20T13:23:49;24.90;99.90
20915;DHT22;10617;52.032;5.298;2023-08-20T13:27:51;24.80;99.90
20915;DHT22;10617;52.032;5.298;2023-08-20T13:31:52;24.80;99.90
20915;DHT22;10617;52.032;5.298;2023-08-20T13:35:54;24.90;99.90
20915;DHT22;10617;52.032;5.298;2023-08-20T13:39:57;24.90;99.90
20915;DHT22;10617;52.032;5.298;2023-08-20T13:43:59;24.80;99.90
20915;DHT22;10617;52.032;5.298;2023-08-20T13:48:01;24.80;99.90
20915;DHT22;10617;52.032;5.298;2023-08-20T13:52:03;25.00;99.90
20915;DHT22;10617;52.032;5.298;2023-08-20T13:56:04;25.00;99.90
20915;DHT22;10617;52.032;5.298;2023-08-20T14:00:06;25.10;99.90
20915;DHT22;10617;52.032;5.298;2023-08-20T14:04:13;25.10;99.90
20915;DHT22;10617;52.032;5.298;2023-08-20T14:08:17;25.10;99.90
20915;DHT22;10617;52.032;5.298;2023-08-20T14:12:19;25.20;99.90
20915;DHT22;10617;52.032;5.298;2023-08-20T14:16:21;25.20;99.90
20915;DHT22;10617;52.032;5.298;2023-08-20T14:20:23;25.30;99.90
20915;DHT22;10617;52.032;5.298;2023-08-20T14:24:24;25.30;99.90
20915;DHT22;10617;52.032;5.298;2023-08-20T14:28:26;25.40;99.90
20915;DHT22;10617;52.032;5.298;2023-08-20T14:32:28;25.50;99.90
20915;DHT22;10617;52.032;5.298;2023-08-20T14:36:29;25.50;99.90
20915;DHT22;10617;52.032;5.298;2023-08-20T14:40:31;25.40;99.90
20915;DHT22;10617;52.032;5.298;2023-08-20T14:44:33;25.20;99.90
20915;DHT22;10617;52.032;5.298;2023-08-20T14:48:35;25.10;99.90
20915;DHT22;10617;52.032;5.298;2023-08-20T14:52:41;25.00;99.90
20915;DHT22;10617;52.032;5.298;2023-08-20T14:56:43;25.00;99.90
20915;DHT22;10617;52.032;5.298;2023-08-20T15:00:45;25.00;99.90
20915;DHT22;10617;52.032;5.298;2023-08-20T15:04:49;25.20;99.90
20915;DHT22;10617;52.032;5.298;2023-08-20T15:08:51;25.40;99.90
20915;DHT22;10617;52.032;5.298;2023-08-20T15:12:53;25.50;99.90
20915;DHT22;10617;52.032;5.298;2023-08-20T15:16:54;25.70;99.90
20915;DHT22;10617;52.032;5.298;2023-08-20T15:20:56;25.90;99.90
20915;DHT22;10617;52.032;5.298;2023-08-20T15:24:58;26.20;99.90
20915;DHT22;10617;52.032;5.298;2023-08-20T15:29:00;26.40;99.90
20915;DHT22;10617;52.032;5.298;2023-08-20T15:33:01;26.60;99.90
20915;DHT22;10617;52.032;5.298;2023-08-20T15:37:05;26.80;99.90
20915;DHT22;10617;52.032;5.298;2023-08-20T15:41:07;26.90;99.90
20915;DHT22;10617;52.032;5.298;2023-08-20T15:45:08;27.00;99.90
20915;DHT22;10617;52.032;5.298;2023-08-20T15:49:10;26.90;99.90
20915;DHT22;10617;52.032;5.298;2023-08-20T15:53:12;26.70;99.90
20915;DHT22;10617;52.032;5.298;2023-08-20T15:57:13;26.50;99.90
20915;DHT22;10617;52.032;5.298;2023-08-20T16:01:15;26.30;99.90
20915;DHT22;10617;52.032;5.298;2023-08-20T16:05:17;26.10;99.90
20915;DHT22;10617;52.032;5.298;2023-08-20T16:09:19;25.90;99.90
20915;DHT22;10617;52.032;5.298;2023-08-20T16:13:30;25.80;99.90
20915;DHT22;10617;52.032;5.298;2023-08-20T16:17:32;25.70;99.90
20915;DHT22;10617;52.032;5.298;2023-08-20T16:21:33;25.60;99.90
20915;DHT22;10617;52.032;5.298;2023-08-20T16:25:36;25.50;99.90
20915;DHT22;10617;52.032;5.298;2023-08-20T16:29:38;25.40;99.90
20915;DHT22;10617;52.032;5.298;2023-08-20T16:33:40;25.40;99.90
20915;DHT22;10617;52.032;5.298;2023-08-20T16:37:41;25.60;99.90
20915;DHT22;10617;52.032;5.298;2023-08-20T16:41:43;25.70;99.90
20915;DHT22;10617;52.032;5.298;2023-08-20T16:45:45;25.70;99.90
20915;DHT22;10617;52.032;5.298;2023-08-20T16:49:47;25.70;99.90
20915;DHT22;10617;52.032;5.298;2023-08-20T16:53:48;25.60;99.90
20915;DHT22;10617;52.032;5.298;2023-08-20T16:57:50;25.70;99.90
20915;DHT22;10617;52.032;5.298;2023-08-20T17:01:51;26.00;99.90
20915;DHT22;10617;52.032;5.298;2023-08-20T17:06:00;26.20;99.90
20915;DHT22;10617;52.032;5.298;2023-08-20T17:10:03;26.40;99.90
20915;DHT22;10617;52.032;5.298;2023-08-20T17:14:04;26.60;99.90
20915;DHT22;10617;52.032;5.298;2023-08-20T17:18:06;26.70;99.90
20915;DHT22;10617;52.032;5.298;2023-08-20T17:22:08;26.70;99.90
20915;DHT22;10617;52.032;5.298;2023-08-20T17:26:09;26.60;99.90
20915;DHT22;10617;52.032;5.298;2023-08-20T17:30:11;26.50;99.90
20915;DHT22;10617;52.032;5.298;2023-08-20T17:34:13;26.30;99.90
20915;DHT22;10617;52.032;5.298;2023-08-20T17:38:14;26.00;99.90
20915;DHT22;10617;52.032;5.298;2023-08-20T17:42:16;25.80;99.90
20915;DHT22;10617;52.032;5.298;2023-08-20T17:46:18;25.60;99.90
20915;DHT22;10617;52.032;5.298;2023-08-20T17:50:20;25.40;99.90
20915;DHT22;10617;52.032;5.298;2023-08-20T17:54:21;25.30;99.90
20915;DHT22;10617;52.032;5.298;2023-08-20T17:58:23;25.20;99.90
20915;DHT22;10617;52.032;5.298;2023-08-20T18:02:25;25.20;99.90
20915;DHT22;10617;52.032;5.298;2023-08-20T18:06:27;25.20;99.90
20915;DHT22;10617;52.032;5.298;2023-08-20T18:10:28;25.10;99.90
20915;DHT22;10617;52.032;5.298;2023-08-20T18:14:30;25.00;99.90
20915;DHT22;10617;52.032;5.298;2023-08-20T18:18:32;25.00;99.90
20915;DHT22;10617;52.032;5.298;2023-08-20T18:22:34;24.90;99.90
20915;DHT22;10617;52.032;5.298;2023-08-20T18:26:36;24.90;99.90
20915;DHT22;10617;52.032;5.298;2023-08-20T18:30:37;24.80;99.90
20915;DHT22;10617;52.032;5.298;2023-08-20T18:34:39;24.70;99.90
20915;DHT22;10617;52.032;5.298;2023-08-20T18:38:41;24.60;99.90
20915;DHT22;10617;52.032;5.298;2023-08-20T18:42:43;24.50;99.90
20915;DHT22;10617;52.032;5.298;2023-08-20T18:46:44;24.40;99.90
20915;DHT22;10617;52.032;5.298;2023-08-20T18:50:46;24.30;99.90
20915;DHT22;10617;52.032;5.298;2023-08-20T18:54:49;24.20;99.90
20915;DHT22;10617;52.032;5.298;2023-08-20T18:58:51;24.10;99.90
20915;DHT22;10617;52.032;5.298;2023-08-20T19:02:53;24.00;99.90
20915;DHT22;10617;52.032;5.298;2023-08-20T19:06:54;23.90;99.90
20915;DHT22;10617;52.032;5.298;2023-08-20T19:10:59;23.80;99.90
20915;DHT22;10617;52.032;5.298;2023-08-20T19:15:01;23.80;99.90
20915;DHT22;10617;52.032;5.298;2023-08-20T19:19:03;23.70;99.90
20915;DHT22;10617;52.032;5.298;2023-08-20T19:23:05;23.60;99.90
20915;DHT22;10617;52.032;5.298;2023-08-20T19:27:06;23.50;99.90
20915;DHT22;10617;52.032;5.298;2023-08-20T19:31:08;23.40;99.90
20915;DHT22;10617;52.032;5.298;2023-08-20T19:35:11;23.30;99.90
20915;DHT22;10617;52.032;5.298;2023-08-20T19:39:18;23.20;99.90
20915;DHT22;10617;52.032;5.298;2023-08-20T19:43:19;23.00;99.90
20915;DHT22;10617;52.032;5.298;2023-08-20T19:47:21;22.90;99.90
20915;DHT22;10617;52.032;5.298;2023-08-20T19:51:23;22.80;99.90
20915;DHT22;10617;52.032;5.298;2023-08-20T19:55:25;22.70;99.90
20915;DHT22;10617;52.032;5.298;2023-08-20T19:59:26;22.50;99.90
20915;DHT22;10617;52.032;5.298;2023-08-20T20:03:28;22.40;99.90
20915;DHT22;10617;52.032;5.298;2023-08-20T20:07:30;22.30;99.90
20915;DHT22;10617;52.032;5.298;2023-08-20T20:11:31;22.30;99.90
20915;DHT22;10617;52.032;5.298;2023-08-20T20:15:33;22.20;99.90
20915;DHT22;10617;52.032;5.298;2023-08-20T20:19:35;22.20;99.90
20915;DHT22;10617;52.032;5.298;2023-08-20T20:23:36;22.10;99.90
20915;DHT22;10617;52.032;5.298;2023-08-20T20:27:38;22.10;99.90
20915;DHT22;10617;52.032;5.298;2023-08-20T20:31:40;22.00;99.90
20915;DHT22;10617;52.032;5.298;2023-08-20T20:35:41;21.90;99.90
20915;DHT22;10617;52.032;5.298;2023-08-20T20:39:43;21.80;99.90
20915;DHT22;10617;52.032;5.298;2023-08-20T20:43:45;21.80;99.90
20915;DHT22;10617;52.032;5.298;2023-08-20T20:47:46;21.80;99.90
20915;DHT22;10617;52.032;5.298;2023-08-20T20:51:48;21.70;99.90
20915;DHT22;10617;52.032;5.298;2023-08-20T20:55:50;21.70;99.90
20915;DHT22;10617;52.032;5.298;2023-08-20T20:59:51;21.70;99.90
20915;DHT22;10617;52.032;5.298;2023-08-20T21:03:53;21.70;99.90
20915;DHT22;10617;52.032;5.298;2023-08-20T21:07:55;21.70;99.90
20915;DHT22;10617;52.032;5.298;2023-08-20T21:11:57;21.60;99.90
20915;DHT22;10617;52.032;5.298;2023-08-20T21:15:58;21.50;99.90
20915;DHT22;10617;52.032;5.298;2023-08-20T21:20:00;21.50;99.90
20915;DHT22;10617;52.032;5.298;2023-08-20T21:24:01;21.50;99.90
20915;DHT22;10617;52.032;5.298;2023-08-20T21:28:03;21.40;99.90
20915;DHT22;10617;52.032;5.298;2023-08-20T21:32:05;21.30;99.90
20915;DHT22;10617;52.032;5.298;2023-08-20T21:36:07;21.20;99.90
20915;DHT22;10617;52.032;5.298;2023-08-20T21:40:09;21.20;99.90
20915;DHT22;10617;52.032;5.298;2023-08-20T21:44:11;21.10;99.90
20915;DHT22;10617;52.032;5.298;2023-08-20T21:48:13;21.10;99.90
20915;DHT22;10617;52.032;5.298;2023-08-20T21:52:15;21.10;99.90
20915;DHT22;10617;52.032;5.298;2023-08-20T21:56:16;21.10;99.90
20915;DHT22;10617;52.032;5.298;2023-08-20T22:00:18;21.10;99.90
20915;DHT22;10617;52.032;5.298;2023-08-20T22:04:20;21.10;99.90
20915;DHT22;10617;52.032;5.298;2023-08-20T22:08:22;21.00;99.90
20915;DHT22;10617;52.032;5.298;2023-08-20T22:12:24;21.00;99.90
20915;DHT22;10617;52.032;5.298;2023-08-20T22:16:25;21.00;99.90
20915;DHT22;10617;52.032;5.298;2023-08-20T22:20:27;20.90;99.90
20915;DHT22;10617;52.032;5.298;2023-08-20T22:24:29;20.80;99.90
20915;DHT22;10617;52.032;5.298;2023-08-20T22:28:31;20.80;99.90
20915;DHT22;10617;52.032;5.298;2023-08-20T22:32:32;20.80;99.90
20915;DHT22;10617;52.032;5.298;2023-08-20T22:36:34;20.70;99.90
20915;DHT22;10617;52.032;5.298;2023-08-20T22:40:37;20.70;99.90
20915;DHT22;10617;52.032;5.298;2023-08-20T22:44:39;20.70;99.90
20915;DHT22;10617;52.032;5.298;2023-08-20T22:48:40;20.60;99.90
20915;DHT22;10617;52.032;5.298;2023-08-20T22:52:42;20.60;99.90
20915;DHT22;10617;52.032;5.298;2023-08-20T22:56:44;20.60;99.90
20915;DHT22;10617;52.032;5.298;2023-08-20T23:00:46;20.60;99.90
20915;DHT22;10617;52.032;5.298;2023-08-20T23:04:48;20.50;99.90
20915;DHT22;10617;52.032;5.298;2023-08-20T23:08:50;20.40;99.90
20915;DHT22;10617;52.032;5.298;2023-08-20T23:12:51;20.40;99.90
20915;DHT22;10617;52.032;5.298;2023-08-20T23:16:53;20.40;99.90
20915;DHT22;10617;52.032;5.298;2023-08-20T23:20:59;20.40;99.90
20915;DHT22;10617;52.032;5.298;2023-08-20T23:25:01;20.30;99.90
20915;DHT22;10617;52.032;5.298;2023-08-20T23:29:02;20.30;99.90
20915;DHT22;10617;52.032;5.298;2023-08-20T23:33:05;20.20;99.90
20915;DHT22;10617;52.032;5.298;2023-08-20T23:37:07;20.10;99.90
20915;DHT22;10617;52.032;5.298;2023-08-20T23:41:08;20.10;99.90
20915;DHT22;10617;52.032;5.298;2023-08-20T23:45:10;20.10;99.90
20915;DHT22;10617;52.032;5.298;2023-08-20T23:49:12;20.00;99.90
20915;DHT22;10617;52.032;5.298;2023-08-20T23:53:13;20.00;99.90
20915;DHT22;10617;52.032;5.298;2023-08-20T23:57:15;20.00;99.90
